Time;durP1;ratioP1;P1;durP2;ratioP2;P2;SDS_P1;SDS_P2;PMS_P1;PMS_P2;Temp;Humidity;BMP_temperature;BMP_pressure;BME280_temperature;BME280_humidity;BME280_pressure;Samples;Min_cycle;Max_cycle;Signal;HPM_P1;HPM_P2
2021/08/19 00:00:29;;;;;;;;;;;;;;;22.10;60.46;101293.53;1588718;38;152847;-57
2021/08/19 00:02:01;;;;;;;;;;;;;;;22.12;60.40;101284.81;1588443;38;153654;-58
2021/08/19 00:03:33;;;;;;;;;;;;;;;22.10;60.34;101292.69;1589475;38;151972;-58
2021/08/19 00:05:06;;;;;;;;;;;;;;;22.10;60.49;101279.47;1587873;38;152790;-58
2021/08/19 00:06:38;;;;;;;;;;;;;;;22.13;60.35;101286.44;1589340;38;153396;-57
2021/08/19 00:08:10;;;;;;;;;;;;;;;22.14;60.55;101282.50;1589127;38;153319;-58
2021/08/19 00:09:42;;;;;;;;;;;;;;;22.14;60.26;101282.50;1588895;38;152904;-57
2021/08/19 00:11:14;;;;;;;;;;;;;;;22.17;60.12;101282.69;1588002;38;152867;-57
2021/08/19 00:12:46;;;;;;;;;;;;;;;22.18;59.93;101281.56;1588803;38;153471;-58
2021/08/19 00:14:18;;;;;;;;;;;;;;;22.19;60.21;101285.22;1588609;38;152039;-57
2021/08/19 00:15:50;;;;;;;;;;;;;;;22.16;60.33;101283.03;1589378;38;152891;-58
2021/08/19 00:17:22;;;;;;;;;;;;;;;22.13;60.13;101281.66;1589027;38;152777;-57
2021/08/19 00:18:55;;;;;;;;;;;;;;;22.17;60.33;101274.25;1592369;38;152963;-58
2021/08/19 00:20:27;;;;;;;;;;;;;;;22.15;60.21;101270.09;1589353;30;154852;-58
2021/08/19 00:22:00;;;;;;;;;;;;;;;22.15;60.40;101276.56;1588424;30;153592;-58
2021/08/19 00:23:35;;;;;;;;;;;;;;;22.15;60.54;101273.75;1586746;38;153439;-57
2021/08/19 00:25:07;;;;;;;;;;;;;;;22.14;60.50;101274.88;1588186;38;153696;-57
2021/08/19 00:26:39;;;;;;;;;;;;;;;22.16;60.15;101272.59;1586577;38;154211;-57
2021/08/19 00:28:11;;;;;;;;;;;;;;;22.16;60.46;101271.78;1586835;38;153685;-58
2021/08/19 00:29:43;;;;;;;;;;;;;;;22.18;60.53;101277.91;1587068;30;154595;-57
2021/08/19 00:31:15;;;;;;;;;;;;;;;22.16;60.32;101278.25;1588297;38;153692;-58
2021/08/19 00:32:47;;;;;;;;;;;;;;;22.14;60.06;101274.03;1589005;30;153974;-57
2021/08/19 00:34:20;;;;;;;;;;;;;;;22.14;60.19;101276.88;1586980;38;154281;-58
2021/08/19 00:35:52;;;;;;;;;;;;;;;22.14;60.51;101276.88;1587017;38;154188;-58
2021/08/19 00:37:24;;;;;;;;;;;;;;;22.15;60.40;101270.09;1587385;30;153995;-58
2021/08/19 00:38:57;;;;;;;;;;;;;;;22.14;60.44;101268.41;1590363;30;154235;-57
2021/08/19 00:40:29;;;;;;;;;;;;;;;22.15;60.12;101270.09;1589995;38;153783;-57
2021/08/19 00:42:01;;;;;;;;;;;;;;;22.12;60.65;101265.09;1588923;38;152107;-58
2021/08/19 00:43:34;;;;;;;;;;;;;;;22.10;60.52;101264.56;1589635;30;152042;-57
2021/08/19 00:45:08;;;;;;;;;;;;;;;22.12;60.68;101262.28;1588305;38;151816;-58
2021/08/19 00:46:42;;;;;;;;;;;;;;;22.17;60.66;101267.78;1588910;38;152022;-58
2021/08/19 00:48:14;;;;;;;;;;;;;;;22.16;60.72;101269.78;1588133;38;152550;-58
2021/08/19 00:49:46;;;;;;;;;;;;;;;22.15;60.48;101254.03;1589439;38;152038;-58
2021/08/19 00:51:18;;;;;;;;;;;;;;;22.16;60.67;101266.13;1588345;38;152411;-58
2021/08/19 00:52:51;;;;;;;;;;;;;;;22.17;60.39;101263.00;1587802;38;151775;-58
2021/08/19 00:54:25;;;;;;;;;;;;;;;22.16;60.53;101261.34;1588109;38;152041;-58
2021/08/19 00:55:57;;;;;;;;;;;;;;;22.15;60.42;101262.50;1585945;38;152406;-57
2021/08/19 00:57:29;;;;;;;;;;;;;;;22.18;60.69;101264.66;1586511;38;151979;-58
2021/08/19 00:59:03;;;;;;;;;;;;;;;22.19;60.68;101265.50;1588079;38;152323;-58
2021/08/19 01:00:35;;;;;;;;;;;;;;;22.17;60.36;101262.16;1587733;30;152046;-58
2021/08/19 01:02:08;;;;;;;;;;;;;;;22.16;60.59;101264.16;1585988;38;151925;-58
2021/08/19 01:03:40;;;;;;;;;;;;;;;22.18;60.59;101259.03;1591498;38;152104;-57
2021/08/19 01:05:13;;;;;;;;;;;;;;;22.18;60.18;101258.19;1588324;38;152786;-58
2021/08/19 01:06:45;;;;;;;;;;;;;;;22.16;60.37;101258.53;1585837;38;152809;-58
2021/08/19 01:08:19;;;;;;;;;;;;;;;22.17;60.63;101262.16;1586209;38;153415;-57
2021/08/19 01:09:51;;;;;;;;;;;;;;;22.18;60.46;101263.81;1586447;38;153486;-57
2021/08/19 01:11:24;;;;;;;;;;;;;;;22.19;60.27;101262.69;1586079;38;152949;-57
2021/08/19 01:12:56;;;;;;;;;;;;;;;22.18;59.97;101253.41;1589002;30;152856;-58
2021/08/19 01:14:28;;;;;;;;;;;;;;;22.18;60.59;101261.00;1586267;38;152894;-57
2021/08/19 01:16:01;;;;;;;;;;;;;;;22.18;60.06;101261.00;1589249;38;153468;-57
2021/08/19 01:17:33;;;;;;;;;;;;;;;22.20;60.42;101257.91;1588079;30;152995;-58
2021/08/19 01:19:05;;;;;;;;;;;;;;;22.18;59.98;101253.41;1588088;38;153746;-57
2021/08/19 01:20:38;;;;;;;;;;;;;;;22.20;60.10;101250.28;1585596;38;152858;-58
2021/08/19 01:22:09;;;;;;;;;;;;;;;22.18;60.29;101246.94;1587576;38;152887;-57
2021/08/19 01:23:42;;;;;;;;;;;;;;;22.18;60.35;101247.78;1587026;38;153579;-57
2021/08/19 01:25:14;;;;;;;;;;;;;;;22.17;60.47;101251.72;1589343;30;153839;-57
2021/08/19 01:26:47;;;;;;;;;;;;;;;22.20;60.63;101255.09;1589382;38;154105;-57
2021/08/19 01:28:19;;;;;;;;;;;;;;;22.21;60.52;101249.16;1587517;38;154299;-57
2021/08/19 01:29:52;;;;;;;;;;;;;;;22.20;60.27;101258.75;1589311;38;154220;-57
2021/08/19 01:31:25;;;;;;;;;;;;;;;22.20;60.44;101258.75;1587410;38;153569;-57
2021/08/19 01:32:57;;;;;;;;;;;;;;;22.21;60.41;101251.13;1588193;38;153376;-58
2021/08/19 01:34:30;;;;;;;;;;;;;;;22.18;59.97;101259.03;1588361;38;153982;-58
2021/08/19 01:36:02;;;;;;;;;;;;;;;22.21;60.51;101248.31;1589359;30;154328;-58
2021/08/19 01:37:34;;;;;;;;;;;;;;;22.23;60.56;101251.63;1585669;31;154236;-57
2021/08/19 01:39:06;;;;;;;;;;;;;;;22.20;60.48;101255.91;1588177;38;153516;-58
2021/08/19 01:40:38;;;;;;;;;;;;;;;22.20;60.30;101255.91;1590113;30;154109;-58
2021/08/19 01:42:10;;;;;;;;;;;;;;;22.20;60.41;101247.47;1587662;38;153446;-58
2021/08/19 01:43:44;;;;;;;;;;;;;;;22.20;60.13;101243.81;1587595;38;155130;-58
2021/08/19 01:45:18;;;;;;;;;;;;;;;22.20;60.49;101243.81;1586193;38;153521;-57
2021/08/19 01:46:53;;;;;;;;;;;;;;;22.18;60.33;101253.41;1591238;38;154555;-58
2021/08/19 01:48:25;;;;;;;;;;;;;;;22.23;60.51;101255.28;1588421;38;151853;-58
2021/08/19 01:49:57;;;;;;;;;;;;;;;22.23;60.39;101255.28;1586576;38;151870;-58
2021/08/19 01:51:30;;;;;;;;;;;;;;;22.22;59.83;101249.97;1585978;38;152062;-58
2021/08/19 01:53:02;;;;;;;;;;;;;;;22.23;60.03;101255.28;1588606;38;152160;-57
2021/08/19 01:54:34;;;;;;;;;;;;;;;22.23;60.02;101260.91;1589233;38;151884;-58
2021/08/19 01:56:06;;;;;;;;;;;;;;;22.23;60.28;101255.28;1588057;38;152088;-58
2021/08/19 01:57:38;;;;;;;;;;;;;;;22.22;59.95;101252.78;1588356;38;151902;-58
2021/08/19 01:59:11;;;;;;;;;;;;;;;22.21;59.94;101249.16;1586664;38;151853;-57
2021/08/19 02:00:43;;;;;;;;;;;;;;;22.18;60.42;101259.03;1585679;30;151928;-57
2021/08/19 02:02:15;;;;;;;;;;;;;;;22.18;60.47;101244.97;1588247;38;151923;-58
2021/08/19 02:03:48;;;;;;;;;;;;;;;22.21;59.93;101248.31;1588722;38;151763;-57
2021/08/19 02:05:20;;;;;;;;;;;;;;;22.20;60.21;101244.66;1587299;38;152379;-57
2021/08/19 02:06:52;;;;;;;;;;;;;;;22.18;60.17;101250.59;1587945;30;152118;-57
2021/08/19 02:08:24;;;;;;;;;;;;;;;22.19;60.16;101254.25;1591712;38;151701;-57
2021/08/19 02:09:56;;;;;;;;;;;;;;;22.20;60.61;101260.72;1586821;38;152780;-58
2021/08/19 02:11:28;;;;;;;;;;;;;;;22.20;60.34;101250.28;1589519;38;152837;-57
2021/08/19 02:13:00;;;;;;;;;;;;;;;22.21;60.17;101251.97;1589331;38;153211;-58
2021/08/19 02:14:32;;;;;;;;;;;;;;;22.21;60.49;101257.59;1588429;38;154037;-58
2021/08/19 02:16:05;;;;;;;;;;;;;;;22.20;59.89;101244.66;1590130;30;152921;-57
2021/08/19 02:17:37;;;;;;;;;;;;;;;22.22;59.95;101250.78;1587782;38;152977;-58
2021/08/19 02:19:09;;;;;;;;;;;;;;;22.23;59.93;101244.03;1588717;38;153456;-58
2021/08/19 02:20:41;;;;;;;;;;;;;;;22.21;60.23;101245.50;1587304;38;152839;-58
2021/08/19 02:22:13;;;;;;;;;;;;;;;22.20;59.90;101241.84;1590037;30;153582;-58
2021/08/19 02:23:45;;;;;;;;;;;;;;;22.21;60.19;101237.06;1586111;38;153059;-58
2021/08/19 02:25:17;;;;;;;;;;;;;;;22.22;59.80;101239.53;1588941;38;153571;-57
2021/08/19 02:26:49;;;;;;;;;;;;;;;22.21;59.76;101240.72;1586850;38;153599;-58
2021/08/19 02:28:21;;;;;;;;;;;;;;;22.21;59.79;101237.91;1586354;30;152912;-57
2021/08/19 02:29:53;;;;;;;;;;;;;;;22.20;60.23;101236.22;1589053;38;152798;-58
2021/08/19 02:31:25;;;;;;;;;;;;;;;22.25;60.30;101238.94;1587799;38;153786;-58
2021/08/19 02:32:57;;;;;;;;;;;;;;;22.23;60.15;101240.38;1586518;30;153355;-58
2021/08/19 02:34:29;;;;;;;;;;;;;;;22.23;59.79;101234.75;1587304;38;154159;-58
2021/08/19 02:36:01;;;;;;;;;;;;;;;22.21;59.73;101235.06;1589278;38;153421;-58
2021/08/19 02:37:33;;;;;;;;;;;;;;;22.20;59.91;101233.41;1590156;30;153752;-58
2021/08/19 02:39:05;;;;;;;;;;;;;;;22.22;60.20;101233.06;1589432;30;153396;-58
2021/08/19 02:40:40;;;;;;;;;;;;;;;22.22;60.12;101228.28;1589392;38;154077;-58
2021/08/19 02:42:12;;;;;;;;;;;;;;;22.25;60.13;101236.13;1588796;38;153323;-57
2021/08/19 02:43:44;;;;;;;;;;;;;;;22.23;59.56;101227.13;1588815;38;153472;-58
2021/08/19 02:45:16;;;;;;;;;;;;;;;22.22;59.94;101231.09;1588183;38;154452;-58
2021/08/19 02:46:48;;;;;;;;;;;;;;;22.23;60.23;101227.13;1588297;38;153380;-58
2021/08/19 02:48:21;;;;;;;;;;;;;;;22.23;59.66;101238.41;1587835;38;153476;-58
2021/08/19 02:49:53;;;;;;;;;;;;;;;22.23;59.86;101235.59;1589295;38;153737;-57
2021/08/19 02:51:25;;;;;;;;;;;;;;;22.22;59.89;101233.06;1587054;38;153469;-57
2021/08/19 02:52:57;;;;;;;;;;;;;;;22.18;60.06;101230.88;1590856;38;153534;-58
2021/08/19 02:54:29;;;;;;;;;;;;;;;22.21;59.87;101235.06;1590133;38;151807;-57
2021/08/19 02:56:02;;;;;;;;;;;;;;;22.19;59.85;101234.53;1589387;38;151873;-58
2021/08/19 02:57:34;;;;;;;;;;;;;;;22.19;59.83;101231.72;1589791;38;152089;-58
2021/08/19 02:59:06;;;;;;;;;;;;;;;22.17;59.91;101229.22;1588188;38;152168;-57
2021/08/19 03:00:38;;;;;;;;;;;;;;;22.20;60.22;101232.56;1589773;38;152445;-58
2021/08/19 03:02:10;;;;;;;;;;;;;;;22.20;59.82;101222.16;1588923;38;151946;-58
2021/08/19 03:03:43;;;;;;;;;;;;;;;22.21;59.94;101229.44;1588891;38;152865;-57
2021/08/19 03:05:15;;;;;;;;;;;;;;;22.20;59.83;101224.97;1589921;38;151818;-57
2021/08/19 03:06:47;;;;;;;;;;;;;;;22.20;59.75;101221.31;1589039;38;152299;-57
2021/08/19 03:08:19;;;;;;;;;;;;;;;22.15;59.78;101228.72;1590328;38;151755;-58
2021/08/19 03:09:51;;;;;;;;;;;;;;;22.16;60.12;101215.47;1588725;38;151982;-58
2021/08/19 03:11:23;;;;;;;;;;;;;;;22.14;59.71;101220.56;1589101;38;152012;-57
2021/08/19 03:12:55;;;;;;;;;;;;;;;22.14;59.84;101214.94;1588790;38;152238;-58
2021/08/19 03:14:27;;;;;;;;;;;;;;;22.14;60.19;101221.41;1591667;38;151837;-57
2021/08/19 03:15:59;;;;;;;;;;;;;;;22.15;59.98;101213.81;1587509;38;152907;-58
2021/08/19 03:17:33;;;;;;;;;;;;;;;22.15;59.58;101219.44;1588349;38;152565;-57
2021/08/19 03:19:05;;;;;;;;;;;;;;;22.14;60.10;101212.97;1587945;38;153307;-58
2021/08/19 03:20:37;;;;;;;;;;;;;;;22.12;59.88;101214.44;1586443;38;154392;-57
2021/08/19 03:22:09;;;;;;;;;;;;;;;22.13;59.94;101216.91;1587083;38;153652;-58
2021/08/19 03:23:41;;;;;;;;;;;;;;;22.12;60.18;101209.63;1590068;38;153226;-57
2021/08/19 03:25:13;;;;;;;;;;;;;;;22.13;59.89;101216.91;1587990;38;153943;-58
2021/08/19 03:26:45;;;;;;;;;;;;;;;22.13;59.75;101207.63;1586443;38;153048;-57
2021/08/19 03:28:18;;;;;;;;;;;;;;;22.13;60.14;101214.09;1588461;38;153690;-58
2021/08/19 03:29:50;;;;;;;;;;;;;;;22.12;60.17;101204.00;1588117;38;153460;-57
2021/08/19 03:31:25;;;;;;;;;;;;;;;22.11;60.18;101207.97;1590273;38;153578;-57
2021/08/19 03:32:57;;;;;;;;;;;;;;;22.12;60.11;101209.63;1586469;38;153439;-57
2021/08/19 03:34:29;;;;;;;;;;;;;;;22.11;59.89;101207.97;1586380;30;154179;-57
2021/08/19 03:36:01;;;;;;;;;;;;;;;22.11;59.87;101207.97;1590268;38;153418;-57
2021/08/19 03:37:45;;;;;;;;;;;;;;;22.13;60.11;101214.09;1588428;38;154180;-57
2021/08/19 03:39:17;;;;;;;;;;;;;;;22.13;60.07;101207.63;1588613;38;154432;-58
2021/08/19 03:40:49;;;;;;;;;;;;;;;22.13;59.65;101205.66;1590053;30;153599;-58
2021/08/19 03:42:21;;;;;;;;;;;;;;;22.13;60.19;101210.47;1589227;30;153513;-57
2021/08/19 03:43:53;;;;;;;;;;;;;;;22.14;60.05;101203.69;1588267;38;153380;-58
2021/08/19 03:45:26;;;;;;;;;;;;;;;22.14;59.94;101209.31;1588547;30;153538;-58
2021/08/19 03:46:58;;;;;;;;;;;;;;;22.15;60.28;101205.38;1588070;30;154158;-57
2021/08/19 03:48:31;;;;;;;;;;;;;;;22.15;60.27;101211.81;1589224;38;153442;-57
2021/08/19 03:50:05;;;;;;;;;;;;;;;22.15;60.08;101209.00;1588007;38;153747;-58
2021/08/19 03:51:37;;;;;;;;;;;;;;;22.16;60.19;101213.50;1587972;38;154295;-57
2021/08/19 03:53:10;;;;;;;;;;;;;;;22.15;59.72;101206.19;1589154;38;154040;-57
2021/08/19 03:54:43;;;;;;;;;;;;;;;22.16;60.07;101205.06;1589310;38;154263;-58
2021/08/19 03:56:15;;;;;;;;;;;;;;;22.15;59.67;101213.81;1589526;38;153472;-58
2021/08/19 03:57:47;;;;;;;;;;;;;;;22.15;59.70;101209.00;1591516;38;153744;-57
2021/08/19 03:59:19;;;;;;;;;;;;;;;22.15;59.77;101208.19;1588039;38;152597;-57
2021/08/19 04:00:51;;;;;;;;;;;;;;;22.17;59.92;101203.06;1589116;30;151951;-57
2021/08/19 04:02:24;;;;;;;;;;;;;;;22.16;60.09;101207.88;1589207;30;151892;-57
2021/08/19 04:03:56;;;;;;;;;;;;;;;22.15;59.75;101208.19;1589502;38;152034;-58
2021/08/19 04:05:28;;;;;;;;;;;;;;;22.18;59.83;101202.75;1588423;38;152333;-58
2021/08/19 04:07:00;;;;;;;;;;;;;;;22.16;60.14;101199.44;1585517;38;152086;-57
2021/08/19 04:08:32;;;;;;;;;;;;;;;22.17;59.84;101200.22;1586938;30;151749;-57
2021/08/19 04:10:05;;;;;;;;;;;;;;;22.17;59.94;101200.22;1588186;38;151945;-57
2021/08/19 04:11:37;;;;;;;;;;;;;;;22.17;59.96;101197.41;1588395;38;152042;-57
2021/08/19 04:13:09;;;;;;;;;;;;;;;22.18;59.64;101201.91;1589668;38;152133;-57
2021/08/19 04:14:41;;;;;;;;;;;;;;;22.18;59.61;101207.53;1587727;38;153569;-57
2021/08/19 04:16:13;;;;;;;;;;;;;;;22.17;59.92;101200.22;1587521;38;152295;-58
2021/08/19 04:17:45;;;;;;;;;;;;;;;22.17;59.77;101197.41;1588536;38;152372;-58
2021/08/19 04:19:17;;;;;;;;;;;;;;;22.17;59.77;101200.22;1585616;38;151889;-57
2021/08/19 04:20:49;;;;;;;;;;;;;;;22.15;59.73;101194.94;1590841;38;151966;-58
2021/08/19 04:22:22;;;;;;;;;;;;;;;22.14;59.54;101201.72;1588544;38;153632;-58
2021/08/19 04:23:54;;;;;;;;;;;;;;;22.16;59.69;101190.16;1589423;38;152935;-58
2021/08/19 04:25:26;;;;;;;;;;;;;;;22.14;59.86;101189.63;1587989;38;153403;-57
2021/08/19 04:26:58;;;;;;;;;;;;;;;22.13;59.61;101199.19;1588673;38;153623;-57
2021/08/19 04:28:30;;;;;;;;;;;;;;;22.17;59.95;101198.25;1589119;38;152969;-57
2021/08/19 04:30:02;;;;;;;;;;;;;;;22.15;59.97;101197.75;1589561;30;153007;-57
2021/08/19 04:31:34;;;;;;;;;;;;;;;22.15;59.56;101199.72;1588511;38;152760;-58
2021/08/19 04:33:06;;;;;;;;;;;;;;;22.15;59.56;101206.19;1588822;30;152909;-57
2021/08/19 04:34:38;;;;;;;;;;;;;;;22.15;59.50;101197.75;1588703;38;152750;-57
2021/08/19 04:36:10;;;;;;;;;;;;;;;22.17;59.78;101200.22;1589657;38;152786;-58
2021/08/19 04:37:42;;;;;;;;;;;;;;;22.14;59.64;101200.88;1586875;38;152977;-57
2021/08/19 04:39:15;;;;;;;;;;;;;;;22.15;59.71;101211.00;1589195;38;153313;-57
2021/08/19 04:40:47;;;;;;;;;;;;;;;22.14;59.86;101204.53;1588767;38;153253;-57
2021/08/19 04:42:19;;;;;;;;;;;;;;;22.12;59.57;101208.81;1588390;38;153353;-57
2021/08/19 04:43:51;;;;;;;;;;;;;;;22.11;59.43;101207.97;1588349;38;153922;-57
2021/08/19 04:45:23;;;;;;;;;;;;;;;22.12;59.76;101211.63;1588258;38;153826;-57
2021/08/19 04:46:55;;;;;;;;;;;;;;;22.13;59.27;101204.81;1586270;38;153941;-57
2021/08/19 04:48:28;;;;;;;;;;;;;;;22.11;59.61;101207.13;1588588;38;154377;-58
2021/08/19 04:50:00;;;;;;;;;;;;;;;22.11;59.38;101201.50;1589014;38;154146;-57
2021/08/19 04:51:34;;;;;;;;;;;;;;;22.11;59.77;101201.50;1587664;38;154096;-58
2021/08/19 04:53:06;;;;;;;;;;;;;;;22.12;59.89;101209.63;1586195;38;154279;-58
2021/08/19 04:54:38;;;;;;;;;;;;;;;22.09;59.51;101204.63;1588743;38;154021;-57
2021/08/19 04:56:10;;;;;;;;;;;;;;;22.10;59.92;101206.31;1589444;38;154632;-57
2021/08/19 04:57:42;;;;;;;;;;;;;;;22.09;59.80;101203.78;1588022;38;153764;-58
2021/08/19 04:59:14;;;;;;;;;;;;;;;22.09;59.65;101200.97;1588128;38;154499;-57
2021/08/19 05:00:46;;;;;;;;;;;;;;;22.07;59.79;101201.31;1587958;38;153423;-58
2021/08/19 05:02:18;;;;;;;;;;;;;;;22.11;59.53;101207.13;1586261;38;154160;-58
2021/08/19 05:03:50;;;;;;;;;;;;;;;22.09;59.66;101207.44;1589988;38;153710;-57
2021/08/19 05:05:23;;;;;;;;;;;;;;;22.09;59.59;101215.03;1588457;38;152031;-58
2021/08/19 05:06:54;;;;;;;;;;;;;;;22.09;59.47;101220.69;1588101;38;151926;-58
2021/08/19 05:08:27;;;;;;;;;;;;;;;22.09;59.56;101210.25;1586054;38;152108;-58
2021/08/19 05:09:59;;;;;;;;;;;;;;;22.07;59.63;101217.34;1589395;38;151979;-57
2021/08/19 05:11:31;;;;;;;;;;;;;;;22.09;59.60;101215.88;1588063;38;152195;-58
2021/08/19 05:13:03;;;;;;;;;;;;;;;22.08;59.09;101213.38;1587989;38;152162;-58
2021/08/19 05:14:35;;;;;;;;;;;;;;;22.08;59.55;101216.19;1585614;38;152123;-58
2021/08/19 05:16:07;;;;;;;;;;;;;;;22.08;59.23;101217.03;1588855;38;151961;-58
2021/08/19 05:17:39;;;;;;;;;;;;;;;22.07;59.84;101212.56;1586639;31;152748;-57
2021/08/19 05:19:11;;;;;;;;;;;;;;;22.05;59.82;101212.03;1586137;38;152486;-58
2021/08/19 05:20:43;;;;;;;;;;;;;;;22.06;59.34;101210.06;1586733;30;152372;-58
2021/08/19 05:22:15;;;;;;;;;;;;;;;22.05;59.38;101214.84;1587598;38;152039;-58
2021/08/19 05:23:47;;;;;;;;;;;;;;;22.05;59.49;101216.81;1587912;30;152653;-58
2021/08/19 05:25:19;;;;;;;;;;;;;;;22.04;59.56;101212.34;1588444;38;152357;-58
2021/08/19 05:26:51;;;;;;;;;;;;;;;22.05;59.67;101211.19;1588696;38;152832;-58
2021/08/19 05:28:23;;;;;;;;;;;;;;;22.04;59.37;101204.72;1588613;38;152891;-57
2021/08/19 05:29:55;;;;;;;;;;;;;;;22.05;59.73;101212.03;1589143;38;153450;-58
2021/08/19 05:31:27;;;;;;;;;;;;;;;22.05;59.47;101214.84;1589529;30;153650;-58
2021/08/19 05:33:00;;;;;;;;;;;;;;;22.07;59.40;101211.72;1589278;38;152171;-58
2021/08/19 05:34:32;;;;;;;;;;;;;;;22.05;59.80;101214.00;1589449;38;153675;-58
2021/08/19 05:36:08;;;;;;;;;;;;;;;22.05;59.38;101216.81;1586667;38;152915;-58
2021/08/19 05:37:40;;;;;;;;;;;;;;;22.02;59.82;101209.84;1589649;38;152758;-58
2021/08/19 05:39:12;;;;;;;;;;;;;;;22.05;59.70;101209.22;1588661;38;153945;-58
2021/08/19 05:40:44;;;;;;;;;;;;;;;22.03;59.61;101210.69;1590834;30;153561;-58
2021/08/19 05:42:16;;;;;;;;;;;;;;;22.01;59.93;101213.81;1589477;38;152953;-57
2021/08/19 05:43:48;;;;;;;;;;;;;;;22.03;59.52;101219.94;1587090;38;152814;-58
2021/08/19 05:45:20;;;;;;;;;;;;;;;22.04;59.38;101227.25;1588150;30;153034;-58
2021/08/19 05:46:52;;;;;;;;;;;;;;;22.02;59.43;101221.09;1591042;30;152160;-58
2021/08/19 05:48:24;;;;;;;;;;;;;;;22.02;59.15;101220.28;1587368;38;153648;-58
2021/08/19 05:49:57;;;;;;;;;;;;;;;22.02;59.21;101228.72;1587932;30;154132;-58
2021/08/19 05:51:29;;;;;;;;;;;;;;;22.03;59.51;101216.31;1585869;38;154191;-58
2021/08/19 05:53:01;;;;;;;;;;;;;;;22.02;59.23;101215.47;1589433;38;154355;-58
2021/08/19 05:54:35;;;;;;;;;;;;;;;22.01;59.22;101213.81;1588288;38;155110;-58
2021/08/19 05:56:07;;;;;;;;;;;;;;;22.01;59.49;101219.44;1586930;38;153405;-58
2021/08/19 05:57:39;;;;;;;;;;;;;;;22.01;59.26;101219.44;1588755;38;153599;-58
2021/08/19 05:59:11;;;;;;;;;;;;;;;22.02;59.33;101217.44;1589887;38;153471;-58
2021/08/19 06:00:46;;;;;;;;;;;;;;;22.03;59.33;101219.13;1586018;38;154437;-58
2021/08/19 06:02:19;;;;;;;;;;;;;;;22.03;59.36;101219.13;1588677;38;153934;-58
2021/08/19 06:03:51;;;;;;;;;;;;;;;22.01;59.47;101210.16;1586363;38;153698;-58
2021/08/19 06:05:23;;;;;;;;;;;;;;;21.99;59.07;101216.06;1587429;38;153913;-58
2021/08/19 06:06:55;;;;;;;;;;;;;;;22.01;59.61;101218.59;1589837;38;154111;-58
2021/08/19 06:08:27;;;;;;;;;;;;;;;22.02;59.26;101214.63;1587331;38;154031;-58
2021/08/19 06:09:59;;;;;;;;;;;;;;;22.01;59.07;101224.22;1589762;38;153576;-58
2021/08/19 06:11:31;;;;;;;;;;;;;;;22.00;59.42;101223.38;1590093;30;152062;-58
2021/08/19 06:13:03;;;;;;;;;;;;;;;22.04;59.56;101217.97;1588659;38;151906;-58
2021/08/19 06:14:38;;;;;;;;;;;;;;;22.02;59.09;101207.03;1589462;30;151795;-58
2021/08/19 06:16:10;;;;;;;;;;;;;;;22.01;59.07;101210.16;1588469;38;152154;-57
2021/08/19 06:17:42;;;;;;;;;;;;;;;22.01;59.63;101212.97;1588009;38;151927;-58
2021/08/19 06:19:14;;;;;;;;;;;;;;;22.02;59.10;101217.44;1589247;38;152098;-58
2021/08/19 06:20:46;;;;;;;;;;;;;;;22.00;59.17;101223.38;1589070;38;151876;-58
2021/08/19 06:22:18;;;;;;;;;;;;;;;22.02;59.47;101232.38;1589832;30;152285;-57
2021/08/19 06:23:50;;;;;;;;;;;;;;;22.01;59.08;101224.22;1587436;38;152202;-57
2021/08/19 06:25:23;;;;;;;;;;;;;;;22.00;59.26;101237.44;1586418;30;152163;-58
2021/08/19 06:26:55;;;;;;;;;;;;;;;21.98;59.24;101234.13;1588724;30;152119;-58
2021/08/19 06:28:27;;;;;;;;;;;;;;;22.01;59.36;101232.66;1589125;38;151969;-58
2021/08/19 06:29:59;;;;;;;;;;;;;;;22.00;59.22;101233.81;1588647;38;153059;-57
2021/08/19 06:31:31;;;;;;;;;;;;;;;21.99;59.15;101229.31;1591126;38;152636;-57
2021/08/19 06:33:03;;;;;;;;;;;;;;;22.00;59.62;101233.81;1588461;30;152864;-58
2021/08/19 06:34:35;;;;;;;;;;;;;;;22.00;59.38;101237.44;1588547;38;153028;-57
2021/08/19 06:36:08;;;;;;;;;;;;;;;22.00;59.11;101231.00;1589972;38;154020;-58
2021/08/19 06:37:39;;;;;;;;;;;;;;;22.00;59.55;101237.44;1587027;38;152928;-58
2021/08/19 06:39:12;;;;;;;;;;;;;;;21.99;59.43;101232.97;1588840;38;153377;-58
2021/08/19 06:40:47;;;;;;;;;;;;;;;22.01;59.63;101236.31;1589887;30;153998;-58
2021/08/19 06:42:19;;;;;;;;;;;;;;;21.99;59.31;101244.22;1587503;38;153233;-58
2021/08/19 06:43:51;;;;;;;;;;;;;;;21.99;59.26;101237.75;1589273;38;154337;-57
2021/08/19 06:45:24;;;;;;;;;;;;;;;21.98;59.43;101236.09;1589306;38;153664;-57
2021/08/19 06:46:57;;;;;;;;;;;;;;;22.00;59.23;101239.44;1589027;30;153738;-57
2021/08/19 06:48:29;;;;;;;;;;;;;;;21.99;59.55;101240.56;1587917;30;153921;-57
2021/08/19 06:50:01;;;;;;;;;;;;;;;21.98;59.26;101230.47;1589337;30;153646;-57
2021/08/19 06:51:33;;;;;;;;;;;;;;;21.97;59.22;101237.25;1588075;38;152936;-58
2021/08/19 06:53:05;;;;;;;;;;;;;;;21.95;59.65;101236.72;1589313;38;153840;-58
2021/08/19 06:54:37;;;;;;;;;;;;;;;21.93;59.68;101237.03;1586698;38;153991;-58
2021/08/19 06:56:10;;;;;;;;;;;;;;;21.91;59.73;101233.66;1586861;38;153974;-58
2021/08/19 06:57:42;;;;;;;;;;;;;;;21.89;59.55;101233.16;1589826;38;156248;-58
2021/08/19 06:59:14;;;;;;;;;;;;;;;21.88;59.58;101228.66;1588860;38;153404;-57
2021/08/19 07:00:46;;;;;;;;;;;;;;;21.86;59.59;101228.13;1588599;38;154072;-57
2021/08/19 07:02:19;;;;;;;;;;;;;;;21.87;60.07;101223.34;1588821;38;153439;-57
2021/08/19 07:03:51;;;;;;;;;;;;;;;21.86;59.80;101228.13;1589203;38;154067;-57
2021/08/19 07:05:24;;;;;;;;;;;;;;;21.87;60.11;101231.78;1590471;38;154263;-57
2021/08/19 07:06:56;;;;;;;;;;;;;;;21.87;60.19;101227.00;1589255;38;154244;-57
2021/08/19 07:08:28;;;;;;;;;;;;;;;21.85;59.78;101228.47;1588722;38;154054;-57
2021/08/19 07:10:01;;;;;;;;;;;;;;;21.85;59.93;101226.44;1588434;38;154278;-57
2021/08/19 07:11:33;;;;;;;;;;;;;;;21.85;60.19;101226.44;1588833;38;153770;-57
2021/08/19 07:13:05;;;;;;;;;;;;;;;21.84;60.14;101219.19;1589600;38;153958;-57
2021/08/19 07:14:37;;;;;;;;;;;;;;;21.84;60.08;101221.16;1590617;38;153662;-57
2021/08/19 07:16:09;;;;;;;;;;;;;;;21.84;60.04;101223.97;1589666;30;152167;-57
2021/08/19 07:17:41;;;;;;;;;;;;;;;21.84;59.78;101218.34;1589528;38;152172;-58
2021/08/19 07:19:14;;;;;;;;;;;;;;;21.84;59.71;101224.81;1590002;38;152108;-57
2021/08/19 07:20:46;;;;;;;;;;;;;;;21.82;60.11;101223.44;1588409;38;152015;-58
2021/08/19 07:22:18;;;;;;;;;;;;;;;21.82;59.78;101223.44;1589046;38;151907;-57
2021/08/19 07:23:50;;;;;;;;;;;;;;;21.82;60.01;101224.28;1587072;30;152247;-57
2021/08/19 07:25:22;;;;;;;;;;;;;;;21.82;59.88;101227.09;1589045;38;152044;-57
2021/08/19 07:26:54;;;;;;;;;;;;;;;21.83;60.03;101227.91;1587907;30;151779;-57
2021/08/19 07:28:27;;;;;;;;;;;;;;;21.81;60.17;101224.56;1589075;30;151902;-58
2021/08/19 07:29:59;;;;;;;;;;;;;;;21.80;59.83;101223.75;1588338;38;152285;-57
2021/08/19 07:31:32;;;;;;;;;;;;;;;21.80;60.21;101222.94;1585900;38;152609;-58
2021/08/19 07:33:06;;;;;;;;;;;;;;;21.81;59.77;101227.38;1588763;30;152685;-57
2021/08/19 07:34:38;;;;;;;;;;;;;;;21.80;59.70;101235.00;1590376;30;152116;-58
2021/08/19 07:36:11;;;;;;;;;;;;;;;21.80;60.17;101235.00;1588638;30;152195;-57
2021/08/19 07:37:47;;;;;;;;;;;;;;;21.85;59.87;101236.91;1590689;38;152272;-57
2021/08/19 07:39:20;;;;;;;;;;;;;;;21.84;59.91;101240.84;1586134;38;153846;-57
2021/08/19 07:40:52;;;;;;;;;;;;;;;21.85;59.74;101242.53;1589610;38;153256;-58
2021/08/19 07:42:24;;;;;;;;;;;;;;;21.87;59.91;101246.69;1588515;38;154841;-57
2021/08/19 07:43:56;;;;;;;;;;;;;;;21.88;60.01;101231.47;1587331;30;153187;-57
2021/08/19 07:45:29;;;;;;;;;;;;;;;21.91;59.76;101235.63;1587642;38;152985;-57
2021/08/19 07:47:02;;;;;;;;;;;;;;;21.92;59.88;101240.97;1588997;38;152926;-58
2021/08/19 07:48:34;;;;;;;;;;;;;;;21.92;60.12;101237.31;1589289;38;152872;-57